createdAt,value
2018-12-29T00:01:51.688Z,36.43
2018-12-29T00:04:21.807Z,31.53
2018-12-29T00:06:51.838Z,34.57
2018-12-29T00:09:21.880Z,33.23
2018-12-29T00:11:51.926Z,32.73
2018-12-29T00:14:21.970Z,37.63
2018-12-29T00:16:51.979Z,34.23
2018-12-29T00:19:21.978Z,36.20
2018-12-29T00:21:52.026Z,31.10
2018-12-29T00:24:22.027Z,34.47
2018-12-29T00:26:52.077Z,31.63
2018-12-29T00:29:22.049Z,30.47
2018-12-29T00:31:52.176Z,31.00
2018-12-29T00:34:22.197Z,31.83
2018-12-29T00:36:52.293Z,29.50
2018-12-29T00:39:22.430Z,29.90
2018-12-29T00:41:52.572Z,29.93
2018-12-29T00:44:22.681Z,30.23
2018-12-29T00:46:52.758Z,31.27
2018-12-29T00:49:22.763Z,28.40
2018-12-29T00:51:52.798Z,34.50
2018-12-29T00:54:22.839Z,33.87
2018-12-29T00:56:52.912Z,33.03
2018-12-29T00:59:23.026Z,36.07
2018-12-29T01:01:53.000Z,31.80
2018-12-29T01:04:23.109Z,32.17
2018-12-29T01:06:53.197Z,30.23
2018-12-29T01:09:23.225Z,30.10
2018-12-29T01:11:53.340Z,29.73
2018-12-29T01:14:23.457Z,29.33
2018-12-29T01:16:53.605Z,31.47
2018-12-29T01:19:23.799Z,30.43
2018-12-29T01:21:53.887Z,30.50
2018-12-29T01:24:24.373Z,30.77
2018-12-29T01:26:54.415Z,31.87
2018-12-29T01:29:24.510Z,29.10
2018-12-29T01:31:54.520Z,29.60
2018-12-29T01:34:24.630Z,30.93
2018-12-29T01:36:54.646Z,30.30
2018-12-29T01:39:24.800Z,28.47
2018-12-29T01:41:54.777Z,29.37
2018-12-29T01:44:24.848Z,30.07
2018-12-29T01:46:54.983Z,31.20
2018-12-29T01:49:25.033Z,32.47
2018-12-29T01:51:55.086Z,32.07
2018-12-29T01:54:25.150Z,29.77
2018-12-29T01:56:55.318Z,32.60
2018-12-29T01:59:25.460Z,32.77
2018-12-29T02:01:55.529Z,29.27
2018-12-29T02:04:25.574Z,28.50
2018-12-29T02:06:55.727Z,29.97
2018-12-29T02:09:25.900Z,29.73
2018-12-29T02:11:55.964Z,31.67
2018-12-29T02:14:26.086Z,31.77
2018-12-29T02:16:56.139Z,29.00
2018-12-29T02:19:26.286Z,29.97
2018-12-29T02:21:56.381Z,29.90
2018-12-29T02:24:26.488Z,30.07
2018-12-29T02:26:56.841Z,29.00
2018-12-29T02:29:26.930Z,31.23
2018-12-29T02:31:57.022Z,31.10
2018-12-29T02:34:27.052Z,29.17
2018-12-29T02:36:57.106Z,28.03
2018-12-29T02:39:27.188Z,30.90
2018-12-29T02:41:57.553Z,29.57
2018-12-29T02:44:27.606Z,29.40
2018-12-29T02:47:00.143Z,29.13
2018-12-29T02:49:30.393Z,31.07
2018-12-29T02:52:00.485Z,29.27
2018-12-29T02:54:30.582Z,29.73
2018-12-29T02:57:01.018Z,28.93
2018-12-29T02:59:31.084Z,27.73
2018-12-29T03:02:01.277Z,32.43
2018-12-29T03:04:32.489Z,32.50
2018-12-29T03:07:02.597Z,33.90
2018-12-29T03:09:32.633Z,30.50
2018-12-29T03:12:02.743Z,28.87
2018-12-29T03:14:32.906Z,30.03
2018-12-29T03:17:03.047Z,31.90
2018-12-29T03:19:33.264Z,27.93
2018-12-29T03:22:03.233Z,29.00
2018-12-29T03:24:33.300Z,29.83
2018-12-29T03:27:03.467Z,30.40
2018-12-29T03:29:33.556Z,29.33
2018-12-29T03:32:03.659Z,31.83
2018-12-29T03:34:33.755Z,28.60
2018-12-29T03:37:03.880Z,28.80
2018-12-29T03:39:33.963Z,27.87
2018-12-29T03:42:04.842Z,31.47
2018-12-29T03:44:34.890Z,28.33
2018-12-29T03:47:05.023Z,28.67
2018-12-29T03:49:35.159Z,27.43
2018-12-29T03:52:05.315Z,27.70
2018-12-29T03:54:35.456Z,27.37
2018-12-29T03:57:05.502Z,30.57
2018-12-29T03:59:35.657Z,31.27
2018-12-29T04:02:05.761Z,28.43
2018-12-29T04:04:35.837Z,29.73
2018-12-29T04:07:05.933Z,29.73
2018-12-29T04:09:36.100Z,29.43
2018-12-29T04:12:09.379Z,33.33
2018-12-29T04:14:39.538Z,31.30
2018-12-29T04:17:09.598Z,33.60
2018-12-29T04:19:39.753Z,31.20
2018-12-29T04:22:09.794Z,33.67
2018-12-29T04:24:39.856Z,31.83
2018-12-29T04:27:09.927Z,33.77
2018-12-29T04:29:39.899Z,28.83
2018-12-29T04:32:09.909Z,30.70
2018-12-29T04:34:40.065Z,30.77
2018-12-29T04:37:10.095Z,33.27
2018-12-29T04:39:40.205Z,33.63
2018-12-29T04:42:10.295Z,30.97
2018-12-29T04:44:40.276Z,32.57
2018-12-29T04:47:10.558Z,31.87
2018-12-29T04:49:40.630Z,35.33
2018-12-29T04:52:10.824Z,34.20
2018-12-29T04:54:41.626Z,32.37
2018-12-29T04:57:11.697Z,32.67
2018-12-29T04:59:41.822Z,32.53
2018-12-29T05:02:11.879Z,31.37
2018-12-29T05:04:41.932Z,31.47
2018-12-29T05:07:12.021Z,32.13
2018-12-29T05:09:42.207Z,35.73
2018-12-29T05:12:12.459Z,30.57
2018-12-29T05:14:42.532Z,33.93
2018-12-29T05:17:12.577Z,31.67
2018-12-29T05:19:42.581Z,30.47
2018-12-29T05:22:12.825Z,33.57
2018-12-29T05:24:42.935Z,28.70
2018-12-29T05:27:13.001Z,28.80
2018-12-29T05:29:43.072Z,29.23
2018-12-29T05:32:13.062Z,33.57
2018-12-29T05:34:43.477Z,29.70
2018-12-29T05:37:13.655Z,36.87
2018-12-29T05:39:43.794Z,33.53
2018-12-29T05:42:13.926Z,32.87
2018-12-29T05:44:43.922Z,32.80
2018-12-29T05:47:14.193Z,32.57
2018-12-29T05:49:44.343Z,32.50
2018-12-29T05:52:14.503Z,32.80
2018-12-29T05:54:44.650Z,33.47
2018-12-29T05:57:14.722Z,30.00
2018-12-29T05:59:44.866Z,29.80
2018-12-29T06:02:15.101Z,31.83
2018-12-29T06:04:45.166Z,33.37
2018-12-29T06:07:15.195Z,32.57
2018-12-29T06:09:45.167Z,33.93
2018-12-29T06:12:15.284Z,33.83
2018-12-29T06:14:45.432Z,31.20
2018-12-29T06:17:15.497Z,31.70
2018-12-29T06:19:45.546Z,31.07
2018-12-29T06:22:15.493Z,34.80
2018-12-29T06:24:45.704Z,35.13
2018-12-29T06:27:15.688Z,30.77
2018-12-29T06:29:45.727Z,31.40
2018-12-29T06:32:15.756Z,32.77
2018-12-29T06:34:45.755Z,35.13
2018-12-29T06:37:15.911Z,32.27
2018-12-29T06:39:45.986Z,33.10
2018-12-29T06:42:15.964Z,33.70
2018-12-29T06:44:45.969Z,30.80
2018-12-29T06:47:16.094Z,31.23
2018-12-29T06:49:46.084Z,36.03
2018-12-29T06:52:16.102Z,33.63
2018-12-29T06:54:46.280Z,33.07
2018-12-29T06:57:16.370Z,33.63
2018-12-29T06:59:46.429Z,34.33
2018-12-29T07:02:16.498Z,36.60
2018-12-29T07:04:46.651Z,38.13
2018-12-29T07:07:16.676Z,34.67
2018-12-29T07:09:46.756Z,33.53
2018-12-29T07:12:16.823Z,33.20
2018-12-29T07:14:46.824Z,30.63
2018-12-29T07:17:16.917Z,33.20
2018-12-29T07:19:46.908Z,32.50
2018-12-29T07:22:17.316Z,34.57
2018-12-29T07:24:47.325Z,35.10
2018-12-29T07:27:17.351Z,35.87
2018-12-29T07:29:47.358Z,33.63
2018-12-29T07:32:20.486Z,34.40
2018-12-29T07:34:50.572Z,32.60
2018-12-29T07:37:20.527Z,35.97
2018-12-29T07:39:50.604Z,30.10
2018-12-29T07:42:20.617Z,33.00
2018-12-29T07:44:50.629Z,33.93
2018-12-29T07:47:20.788Z,32.47
2018-12-29T07:49:53.544Z,36.70
2018-12-29T07:52:23.589Z,34.83
2018-12-29T07:54:53.753Z,37.73
2018-12-29T07:57:23.759Z,36.80
2018-12-29T07:59:53.768Z,33.30
2018-12-29T08:02:23.742Z,38.13
2018-12-29T08:04:53.844Z,32.83
2018-12-29T08:07:23.893Z,35.17
2018-12-29T08:09:54.856Z,31.83
2018-12-29T08:12:24.893Z,31.80
2018-12-29T08:14:55.043Z,36.63
2018-12-29T08:17:25.065Z,37.93
2018-12-29T08:19:55.285Z,37.00
2018-12-29T08:22:25.312Z,34.93
2018-12-29T08:24:55.326Z,35.80
2018-12-29T08:27:25.414Z,34.23
2018-12-29T08:29:55.410Z,38.23
2018-12-29T08:32:25.416Z,35.37
2018-12-29T08:34:55.768Z,32.37
2018-12-29T08:37:25.784Z,33.50
2018-12-29T08:39:55.831Z,36.17
2018-12-29T08:42:25.796Z,34.97
2018-12-29T08:44:55.924Z,38.67
2018-12-29T08:47:25.932Z,30.93
2018-12-29T08:49:55.908Z,34.70
2018-12-29T08:52:25.911Z,32.17
2018-12-29T08:54:55.897Z,32.00
2018-12-29T08:57:25.928Z,33.07
2018-12-29T08:59:56.064Z,33.77
2018-12-29T09:02:26.138Z,40.43
2018-12-29T09:04:56.261Z,33.73
2018-12-29T09:07:26.350Z,34.93
2018-12-29T09:09:56.346Z,38.20
2018-12-29T09:12:26.379Z,37.40
2018-12-29T09:14:56.480Z,36.27
2018-12-29T09:17:26.505Z,35.03
2018-12-29T09:19:56.516Z,34.53
2018-12-29T09:22:26.559Z,34.77
2018-12-29T09:24:56.578Z,36.60
2018-12-29T09:27:26.667Z,37.07
2018-12-29T09:29:56.620Z,37.97
2018-12-29T09:32:26.720Z,36.47
2018-12-29T09:34:56.958Z,37.77
2018-12-29T09:37:27.066Z,37.60
2018-12-29T09:39:57.144Z,38.27
2018-12-29T09:42:27.224Z,37.30
2018-12-29T09:44:57.284Z,33.33
2018-12-29T09:47:27.371Z,34.23
2018-12-29T09:49:57.827Z,33.53
2018-12-29T09:52:27.940Z,33.43
2018-12-29T09:54:57.910Z,33.03
2018-12-29T09:57:27.932Z,34.03
2018-12-29T09:59:57.929Z,37.30
2018-12-29T10:02:28.004Z,39.57
2018-12-29T10:04:59.107Z,36.50
2018-12-29T10:07:29.140Z,37.03
2018-12-29T10:09:59.227Z,37.10
2018-12-29T10:12:29.232Z,33.13
2018-12-29T10:14:59.317Z,34.77
2018-12-29T10:17:29.376Z,32.40
2018-12-29T10:19:59.403Z,33.30
2018-12-29T10:22:29.621Z,34.47
2018-12-29T10:24:59.656Z,37.10
2018-12-29T10:27:29.682Z,35.30
2018-12-29T10:29:59.737Z,32.47
2018-12-29T10:32:29.863Z,31.07
2018-12-29T10:35:00.016Z,33.70
2018-12-29T10:37:30.152Z,32.63
2018-12-29T10:40:00.270Z,32.03
2018-12-29T10:42:30.328Z,31.03
2018-12-29T10:45:00.424Z,33.23
2018-12-29T10:47:34.453Z,32.67
2018-12-29T10:50:02.045Z,33.90
2018-12-29T10:52:32.350Z,34.67
2018-12-29T10:55:02.313Z,29.70
2018-12-29T10:57:32.393Z,33.23
2018-12-29T11:00:02.478Z,31.67
2018-12-29T11:02:32.516Z,30.37
2018-12-29T11:05:02.614Z,29.97
2018-12-29T11:07:32.687Z,33.07
2018-12-29T11:10:02.824Z,31.73
2018-12-29T11:12:32.981Z,30.00
2018-12-29T11:15:04.679Z,32.43
2018-12-29T11:17:41.994Z,29.17
2018-12-29T11:20:06.976Z,29.37
2018-12-29T11:22:37.211Z,30.20
2018-12-29T11:25:07.194Z,29.60
2018-12-29T11:27:37.281Z,30.10
2018-12-29T11:30:07.492Z,30.50
2018-12-29T11:32:38.353Z,31.60
2018-12-29T11:35:08.685Z,30.97
2018-12-29T11:37:38.725Z,29.90
2018-12-29T11:40:08.906Z,31.03
2018-12-29T11:42:41.250Z,28.80
2018-12-29T11:45:11.400Z,29.50
2018-12-29T11:47:41.404Z,31.93
2018-12-29T11:50:11.580Z,32.70
2018-12-29T11:52:41.683Z,34.63
2018-12-29T11:55:11.668Z,32.80
2018-12-29T11:57:41.836Z,37.57
2018-12-29T12:00:11.882Z,35.33
2018-12-29T12:02:41.960Z,31.33
2018-12-29T12:05:11.985Z,38.20
2018-12-29T12:07:42.115Z,34.13
2018-12-29T12:10:12.116Z,34.03
2018-12-29T12:12:42.209Z,35.07
2018-12-29T12:15:12.180Z,32.93
2018-12-29T12:17:42.215Z,31.73
2018-12-29T12:20:12.212Z,34.50
2018-12-29T12:22:42.356Z,30.30
2018-12-29T12:25:12.421Z,33.93
2018-12-29T12:27:42.533Z,29.27
2018-12-29T12:30:12.586Z,26.70
2018-12-29T12:32:42.645Z,30.13
2018-12-29T12:35:12.670Z,31.97
2018-12-29T12:37:42.636Z,30.60
2018-12-29T12:40:12.732Z,31.48
2018-12-29T12:42:42.850Z,33.53
2018-12-29T12:45:12.828Z,29.83
2018-12-29T12:47:42.933Z,30.27
2018-12-29T12:50:13.007Z,31.80
2018-12-29T12:52:43.034Z,35.97
2018-12-29T12:55:13.037Z,36.97
2018-12-29T12:57:43.107Z,35.17
2018-12-29T13:00:13.693Z,36.20
2018-12-29T13:02:44.884Z,36.73
2018-12-29T13:05:14.995Z,37.20
2018-12-29T13:07:45.157Z,36.50
2018-12-29T13:10:15.307Z,36.67
2018-12-29T13:12:45.400Z,35.07
2018-12-29T13:15:15.445Z,30.57
2018-12-29T13:17:45.465Z,32.37
2018-12-29T13:20:15.432Z,33.30
2018-12-29T13:22:45.628Z,29.23
2018-12-29T13:25:15.685Z,30.07
2018-12-29T13:27:45.720Z,27.70
2018-12-29T13:30:15.732Z,28.97
2018-12-29T13:32:45.766Z,28.33
2018-12-29T13:35:15.840Z,27.50
2018-12-29T13:37:45.944Z,25.93
2018-12-29T13:40:16.044Z,27.83
2018-12-29T13:42:46.188Z,25.17
2018-12-29T13:45:16.572Z,26.53
2018-12-29T13:47:47.613Z,25.93
2018-12-29T13:50:17.992Z,26.30
2018-12-29T13:52:48.076Z,27.40
2018-12-29T13:55:20.605Z,24.90
2018-12-29T13:57:50.617Z,24.60
2018-12-29T14:00:20.758Z,24.33
2018-12-29T14:02:50.750Z,24.40
2018-12-29T14:05:22.233Z,24.60
2018-12-29T14:07:52.303Z,26.27
2018-12-29T14:10:22.412Z,24.40
2018-12-29T14:12:52.504Z,29.67
2018-12-29T14:15:22.528Z,24.47
2018-12-29T14:17:52.501Z,26.27
2018-12-29T14:20:22.630Z,24.20
2018-12-29T14:22:56.476Z,25.23
2018-12-29T14:25:29.416Z,25.23
2018-12-29T14:27:59.503Z,28.43
2018-12-29T14:30:30.100Z,23.27
2018-12-29T14:33:00.438Z,20.63
2018-12-29T14:35:30.509Z,19.27
2018-12-29T14:38:00.801Z,21.40
2018-12-29T14:40:31.006Z,15.57
2018-12-29T14:43:00.985Z,16.13
2018-12-29T14:45:31.205Z,13.80
2018-12-29T14:48:01.326Z,10.70
2018-12-29T14:50:31.496Z,11.35
2018-12-29T14:53:01.543Z,11.70
2018-12-29T14:55:31.618Z,10.30
2018-12-29T14:58:01.669Z,11.10
2018-12-29T15:00:32.237Z,11.97
2018-12-29T15:03:02.242Z,14.30
2018-12-29T15:05:32.288Z,13.90
2018-12-29T15:08:02.453Z,13.28
2018-12-29T15:10:32.455Z,17.83
2018-12-29T15:13:07.250Z,14.83
2018-12-29T15:15:37.335Z,13.50
2018-12-29T15:18:07.846Z,12.98
2018-12-29T15:20:38.904Z,13.50
2018-12-29T15:23:09.399Z,13.95
2018-12-29T15:25:39.471Z,14.40
2018-12-29T15:28:09.536Z,15.30
2018-12-29T15:30:39.932Z,16.23
2018-12-29T15:33:10.205Z,15.70
2018-12-29T15:35:40.161Z,18.17
2018-12-29T15:38:12.103Z,16.77
2018-12-29T15:40:42.164Z,17.40
2018-12-29T15:43:12.140Z,17.60
2018-12-29T15:45:42.318Z,16.27
2018-12-29T15:48:12.366Z,17.07
2018-12-29T15:50:45.593Z,16.77
2018-12-29T15:53:15.844Z,19.83
2018-12-29T15:55:45.944Z,16.83
2018-12-29T15:58:16.323Z,16.90
2018-12-29T16:00:46.500Z,14.30
2018-12-29T16:03:20.083Z,14.43
2018-12-29T16:05:50.292Z,14.93
2018-12-29T16:08:20.294Z,12.00
2018-12-29T16:10:50.245Z,15.10
2018-12-29T16:13:23.009Z,13.50
2018-12-29T16:15:53.013Z,11.83
2018-12-29T16:18:23.505Z,12.10
2018-12-29T16:20:55.846Z,12.63
2018-12-29T16:23:26.269Z,12.67
2018-12-29T16:25:56.329Z,13.05
2018-12-29T16:28:26.426Z,17.80
2018-12-29T16:30:56.484Z,15.97
2018-12-29T16:33:26.428Z,12.87
2018-12-29T16:35:56.815Z,14.33
2018-12-29T16:38:26.767Z,12.70
2018-12-29T16:40:57.983Z,11.17
2018-12-29T16:43:28.212Z,11.20
2018-12-29T16:45:58.220Z,14.73
2018-12-29T16:48:29.751Z,15.07
2018-12-29T16:50:59.978Z,12.67
2018-12-29T16:53:30.030Z,12.67
2018-12-29T16:55:59.961Z,11.27
2018-12-29T16:58:29.939Z,10.43
2018-12-29T17:01:00.265Z,11.63
2018-12-29T17:03:31.363Z,13.17
2018-12-29T17:06:02.488Z,12.53
2018-12-29T17:08:33.574Z,14.83
2018-12-29T17:11:03.595Z,15.67
2018-12-29T17:13:33.639Z,19.80
2018-12-29T17:16:03.651Z,20.43
2018-12-29T17:18:33.647Z,18.93
2018-12-29T17:21:05.496Z,18.93
2018-12-29T17:23:35.647Z,18.60
2018-12-29T17:26:05.761Z,18.00
2018-12-29T17:28:36.255Z,19.77
2018-12-29T17:31:06.202Z,18.40
2018-12-29T17:33:37.276Z,18.20
2018-12-29T17:36:07.376Z,18.83
2018-12-29T17:38:37.452Z,16.37
2018-12-29T17:41:07.639Z,17.67
2018-12-29T17:43:37.588Z,17.83
2018-12-29T17:46:07.572Z,18.37
2018-12-29T17:48:37.647Z,21.17
2018-12-29T17:51:07.596Z,19.20
2018-12-29T17:53:47.780Z,20.03
2018-12-29T17:56:12.443Z,19.40
2018-12-29T17:58:42.496Z,25.17
2018-12-29T18:01:12.547Z,21.93
2018-12-29T18:03:42.557Z,21.80
2018-12-29T18:06:12.539Z,19.83
2018-12-29T18:08:42.551Z,22.27
2018-12-29T18:11:12.679Z,23.70
2018-12-29T18:13:42.651Z,22.93
2018-12-29T18:16:12.808Z,20.87
2018-12-29T18:18:43.153Z,22.00
2018-12-29T18:21:13.361Z,23.33
2018-12-29T18:23:43.392Z,21.62
2018-12-29T18:26:13.344Z,25.50
2018-12-29T18:28:44.976Z,25.00
2018-12-29T18:31:15.034Z,26.70
2018-12-29T18:33:46.062Z,27.87
2018-12-29T18:36:16.429Z,26.47
2018-12-29T18:38:46.833Z,24.27
2018-12-29T18:41:20.982Z,26.00
2018-12-29T18:43:51.312Z,27.20
2018-12-29T18:46:21.400Z,28.37
2018-12-29T18:48:51.478Z,29.83
2018-12-29T18:51:24.408Z,30.93
2018-12-29T18:53:54.578Z,29.37
2018-12-29T18:56:24.954Z,35.90
2018-12-29T18:58:54.964Z,32.17
2018-12-29T19:01:26.698Z,32.47
2018-12-29T19:03:57.282Z,35.20
2018-12-29T19:06:27.453Z,30.57
2018-12-29T19:08:57.805Z,22.70
2018-12-29T19:11:28.215Z,27.93
2018-12-29T19:13:58.218Z,25.03
2018-12-29T19:16:28.322Z,23.93
2018-12-29T19:18:58.709Z,25.13
2018-12-29T19:21:28.714Z,22.43
2018-12-29T19:23:59.256Z,23.03
2018-12-29T19:26:29.541Z,21.27
2018-12-29T19:29:00.113Z,23.80
2018-12-29T19:31:32.032Z,22.00
2018-12-29T19:34:02.361Z,19.83
2018-12-29T19:36:32.558Z,19.27
2018-12-29T19:39:04.807Z,16.97
2018-12-29T19:41:35.007Z,18.33
2018-12-29T19:44:05.206Z,16.27
2018-12-29T19:46:35.624Z,18.07
2018-12-29T19:49:05.946Z,16.60
2018-12-29T19:51:37.654Z,15.80
2018-12-29T19:54:07.883Z,16.73
2018-12-29T19:56:39.232Z,14.73
2018-12-29T19:59:09.780Z,16.93
2018-12-29T20:01:39.897Z,12.00
2018-12-29T20:04:10.484Z,13.67
2018-12-29T20:06:40.625Z,13.83
2018-12-29T20:09:10.847Z,14.00
2018-12-29T20:11:40.920Z,16.05
2018-12-29T20:14:11.171Z,18.77
2018-12-29T20:16:41.338Z,16.12
2018-12-29T20:19:11.515Z,18.70
2018-12-29T20:21:41.809Z,16.87
2018-12-29T20:24:11.821Z,17.45
2018-12-29T20:26:42.093Z,17.97
2018-12-29T20:29:12.205Z,18.27
2018-12-29T20:31:42.445Z,15.37
2018-12-29T20:34:12.478Z,11.77
2018-12-29T20:36:42.632Z,13.50
2018-12-29T20:39:12.786Z,11.08
2018-12-29T20:41:43.099Z,12.80
2018-12-29T20:44:13.261Z,12.93
2018-12-29T20:46:43.707Z,14.43
2018-12-29T20:49:13.986Z,8.57
2018-12-29T20:51:44.114Z,12.50
2018-12-29T20:54:14.176Z,11.83
2018-12-29T20:56:44.519Z,12.27
2018-12-29T20:59:14.642Z,9.93
2018-12-29T21:01:45.197Z,8.83
2018-12-29T21:04:15.144Z,8.33
2018-12-29T21:06:45.345Z,7.97
2018-12-29T21:09:15.429Z,8.10
2018-12-29T21:11:45.649Z,8.43
2018-12-29T21:14:16.133Z,8.27
2018-12-29T21:16:46.118Z,7.95
2018-12-29T21:19:16.217Z,7.50
2018-12-29T21:21:46.228Z,7.67
2018-12-29T21:24:16.304Z,8.13
2018-12-29T21:26:46.753Z,8.93
2018-12-29T21:29:16.906Z,7.77
2018-12-29T21:31:47.038Z,8.13
2018-12-29T21:34:17.224Z,8.47
2018-12-29T21:36:47.238Z,7.30
2018-12-29T21:39:17.941Z,10.45
2018-12-29T21:41:48.170Z,9.90
2018-12-29T21:44:18.166Z,9.40
2018-12-29T21:46:48.360Z,10.75
2018-12-29T21:49:18.411Z,12.43
2018-12-29T21:51:48.747Z,10.60
2018-12-29T21:54:18.804Z,10.27
2018-12-29T21:56:48.770Z,9.93
2018-12-29T21:59:18.982Z,9.43
2018-12-29T22:01:48.969Z,9.47
2018-12-29T22:04:19.616Z,10.67
2018-12-29T22:06:49.659Z,12.70
2018-12-29T22:09:19.621Z,9.57
2018-12-29T22:11:49.846Z,10.82
2018-12-29T22:14:19.975Z,11.17
2018-12-29T22:16:50.429Z,11.50
2018-12-29T22:19:20.454Z,9.05
2018-12-29T22:21:50.589Z,13.83
2018-12-29T22:24:20.580Z,11.50
2018-12-29T22:26:50.549Z,11.10
2018-12-29T22:29:20.676Z,12.40
2018-12-29T22:31:50.684Z,12.43
2018-12-29T22:34:20.652Z,13.97
2018-12-29T22:36:50.709Z,10.90
2018-12-29T22:39:20.882Z,11.37
2018-12-29T22:41:51.062Z,13.75
2018-12-29T22:44:21.110Z,13.05
2018-12-29T22:46:51.250Z,12.00
2018-12-29T22:49:21.283Z,12.53
2018-12-29T22:51:51.396Z,13.43
2018-12-29T22:54:21.637Z,11.17
2018-12-29T22:56:51.669Z,13.28
2018-12-29T22:59:21.656Z,11.57
2018-12-29T23:01:51.940Z,13.83
2018-12-29T23:04:22.131Z,10.82
2018-12-29T23:06:52.201Z,12.43
2018-12-29T23:09:22.430Z,12.35
2018-12-29T23:11:52.559Z,11.53
2018-12-29T23:14:24.069Z,12.67
2018-12-29T23:16:54.496Z,12.80
2018-12-29T23:19:24.462Z,11.57
2018-12-29T23:21:54.593Z,12.10
2018-12-29T23:24:24.598Z,11.18
2018-12-29T23:26:54.760Z,12.45
2018-12-29T23:29:25.358Z,13.78
2018-12-29T23:31:55.339Z,13.70
2018-12-29T23:34:25.854Z,13.60
2018-12-29T23:36:55.821Z,14.03
2018-12-29T23:39:25.826Z,12.33
2018-12-29T23:41:56.248Z,13.07
2018-12-29T23:44:26.258Z,13.28
2018-12-29T23:46:56.380Z,11.90
2018-12-29T23:49:26.819Z,12.58
2018-12-29T23:51:56.987Z,12.83
2018-12-29T23:54:27.049Z,10.85
2018-12-29T23:56:57.462Z,12.37
2018-12-29T23:59:27.442Z,14.00
